Time;durP1;ratioP1;P1;durP2;ratioP2;P2;SDS_P1;SDS_P2;PMS_P1;PMS_P2;Temp;Humidity;BMP_temperature;BMP_pressure;BME280_temperature;BME280_humidity;BME280_pressure;Samples;Min_cycle;Max_cycle;Signal;HPM_P1;HPM_P2
2024/01/21 00:00:17;;;;;;;234.13;59.53;;;-6.30;99.90;-5.50;98167.00;;;;5083157;28;20218;-70
2024/01/21 00:03:06;;;;;;;219.40;59.35;;;-6.40;99.90;-5.00;98177.00;;;;5083237;28;20202;-70
2024/01/21 00:05:55;;;;;;;216.75;56.65;;;-6.40;99.90;-5.50;98165.00;;;;5082199;28;20256;-70
2024/01/21 00:08:45;;;;;;;221.85;57.47;;;-6.40;99.90;-5.20;98155.00;;;;5086372;28;20210;-70
2024/01/21 00:11:34;;;;;;;226.07;60.72;;;-6.50;99.90;-5.90;98161.00;;;;5085152;28;20214;-70
2024/01/21 00:14:23;;;;;;;244.55;71.28;;;-6.60;99.90;-6.10;98167.00;;;;5080544;28;20211;-71
2024/01/21 00:17:12;;;;;;;209.30;58.05;;;-6.70;99.90;-5.70;98166.00;;;;5085750;28;20207;-70
2024/01/21 00:20:01;;;;;;;219.32;56.85;;;-6.70;99.90;-6.50;98160.00;;;;5085139;28;20215;-69
2024/01/21 00:22:50;;;;;;;219.95;55.05;;;-6.70;99.90;-6.20;98159.00;;;;5083345;28;20739;-70
2024/01/21 00:25:40;;;;;;;192.27;57.53;;;-6.80;99.90;-6.20;98167.00;;;;5085628;28;20229;-70
2024/01/21 00:28:29;;;;;;;208.30;59.55;;;-6.80;99.90;-5.60;98169.00;;;;5085557;28;20616;-71
2024/01/21 00:31:18;;;;;;;220.68;58.13;;;-6.70;99.90;-4.90;98194.00;;;;5085738;28;20202;-70
2024/01/21 00:34:06;;;;;;;227.02;59.25;;;-6.60;99.90;-5.10;98179.00;;;;5083067;28;20588;-70
2024/01/21 00:36:55;;;;;;;238.43;66.72;;;-6.50;99.90;-4.90;98180.00;;;;5082538;28;20202;-70
2024/01/21 00:39:44;;;;;;;163.10;50.70;;;;;-5.10;98180.00;;;;5083744;28;20242;-71
2024/01/21 00:42:35;;;;;;;182.77;58.60;;;;;-5.60;98171.00;;;;5080444;28;20206;-70
2024/01/21 00:45:24;;;;;;;188.20;58.55;;;-6.40;99.90;-6.20;98178.00;;;;5084730;28;20195;-70
2024/01/21 00:48:12;;;;;;;183.50;54.05;;;-6.50;99.90;-6.20;98163.00;;;;5083303;28;20223;-69
2024/01/21 00:51:01;;;;;;;195.35;55.42;;;-6.60;99.90;-5.90;98174.00;;;;5088821;28;20804;-71
2024/01/21 00:53:50;;;;;;;191.45;55.25;;;-6.70;99.90;-5.90;98178.00;;;;5087650;28;20710;-70
2024/01/21 00:56:39;;;;;;;168.05;51.72;;;-6.70;99.90;-5.30;98179.00;;;;5088941;28;20206;-70
2024/01/21 00:59:29;;;;;;;194.32;60.13;;;-6.70;99.90;-5.00;98188.00;;;;5082517;28;20619;-71
2024/01/21 01:02:18;;;;;;;286.58;119.15;;;-6.60;99.90;-4.70;98175.00;;;;5075371;28;20210;-70
2024/01/21 01:05:09;;;;;;;211.07;56.70;;;-6.50;99.90;-4.70;98183.00;;;;5090078;28;20279;-72
2024/01/21 01:07:57;;;;;;;219.55;57.35;;;-6.30;99.90;-4.60;98189.00;;;;5084667;28;20192;-70
2024/01/21 01:10:46;;;;;;;216.73;56.72;;;-6.20;99.90;-4.80;98179.00;;;;5087500;28;20195;-71
2024/01/21 01:13:35;;;;;;;231.18;60.67;;;-6.20;99.90;-5.40;98168.00;;;;5088745;28;20215;-70
2024/01/21 01:16:25;;;;;;;236.70;62.28;;;-6.30;99.90;-6.10;98173.00;;;;5086847;28;20579;-69
2024/01/21 01:19:14;;;;;;;230.02;58.30;;;-6.40;99.90;-5.70;98174.00;;;;5087073;28;20227;-71
2024/01/21 01:22:03;;;;;;;247.65;70.05;;;-6.50;99.90;-5.30;98171.00;;;;5084322;28;20204;-71
2024/01/21 01:24:52;;;;;;;242.30;64.10;;;-6.50;99.90;-5.00;98183.00;;;;5083468;28;20211;-71
2024/01/21 01:27:41;;;;;;;231.95;58.25;;;-6.40;99.90;-5.50;98178.00;;;;5089481;28;20227;-70
2024/01/21 01:30:30;;;;;;;226.43;59.65;;;-6.30;99.90;-6.50;98169.00;;;;5088928;28;20684;-69
2024/01/21 01:33:21;;;;;;;221.68;58.38;;;-6.50;99.90;-6.80;98162.00;;;;5087548;28;20203;-69
2024/01/21 01:36:11;;;;;;;220.60;57.72;;;-6.80;99.90;-5.60;98181.00;;;;5089393;28;20199;-70
2024/01/21 01:38:59;;;;;;;226.68;59.95;;;-6.80;99.90;-6.10;98159.00;;;;5083196;28;20236;-70
2024/01/21 01:41:48;;;;;;;223.80;56.90;;;-6.80;99.90;-5.60;98175.00;;;;5084520;28;20195;-70
2024/01/21 01:44:40;;;;;;;241.88;62.25;;;-6.80;99.90;-5.90;98160.00;;;;5082130;28;20207;-69
2024/01/21 01:47:30;;;;;;;245.77;65.50;;;-6.80;99.90;-5.60;98170.00;;;;5086948;28;20223;-71
2024/01/21 01:50:21;;;;;;;233.32;58.63;;;-6.80;99.90;-6.40;98162.00;;;;5085638;28;20192;-70
2024/01/21 01:53:10;;;;;;;236.35;59.35;;;-6.90;99.90;-6.50;98148.00;;;;5088656;28;20203;-70
2024/01/21 01:55:59;;;;;;;233.57;57.03;;;-7.00;99.90;-5.90;98159.00;;;;5086254;28;20206;-71
2024/01/21 01:58:50;;;;;;;219.38;54.25;;;-7.00;99.90;-5.40;98166.00;;;;5085407;28;20223;-70
2024/01/21 02:01:39;;;;;;;236.15;61.10;;;-6.90;99.90;-5.40;98158.00;;;;5086201;28;20210;-70
2024/01/21 02:04:28;;;;;;;250.50;65.97;;;-6.70;99.90;-5.20;98153.00;;;;5082884;28;20196;-70
2024/01/21 02:07:18;;;;;;;232.02;57.20;;;-6.50;99.90;-6.00;98158.00;;;;5086449;28;20695;-70
2024/01/21 02:10:08;;;;;;;237.23;59.33;;;-6.50;99.90;-6.10;98147.00;;;;5088834;28;20223;-69
2024/01/21 02:12:57;;;;;;;226.88;57.83;;;-6.60;99.90;-6.20;98151.00;;;;5085499;28;20199;-69
2024/01/21 02:15:46;;;;;;;231.95;57.95;;;-6.70;99.90;-5.50;98164.00;;;;5089011;28;20211;-70
2024/01/21 02:18:37;;;;;;;244.68;66.22;;;-6.70;99.90;-5.80;98143.00;;;;5087757;28;20219;-70
2024/01/21 02:21:26;;;;;;;232.55;58.72;;;-6.80;99.90;-5.50;98145.00;;;;5086727;28;20215;-70
2024/01/21 02:24:16;;;;;;;232.05;59.22;;;-6.80;99.90;-5.80;98150.00;;;;5085131;28;20199;-71
2024/01/21 02:27:06;;;;;;;219.77;57.05;;;-6.80;99.90;-6.30;98138.00;;;;5087989;28;20223;-71
2024/01/21 02:29:55;;;;;;;204.00;55.63;;;-6.90;99.90;-6.20;98140.00;;;;5084553;28;20223;-70
2024/01/21 02:32:43;;;;;;;221.65;61.20;;;-7.00;99.90;-6.10;98128.00;;;;5087313;28;20210;-70
2024/01/21 02:35:32;;;;;;;222.70;58.45;;;-7.00;99.90;-5.40;98151.00;;;;5085926;28;20234;-70
2024/01/21 02:38:21;;;;;;;218.38;57.95;;;-7.00;99.90;-5.60;98150.00;;;;5084908;28;20242;-71
2024/01/21 02:41:12;;;;;;;210.02;55.70;;;-6.90;99.90;-5.00;98146.00;;;;5088372;28;20672;-71
2024/01/21 02:44:01;;;;;;;218.23;60.58;;;-6.80;99.90;-5.00;98159.00;;;;5082468;28;20199;-71
2024/01/21 02:46:49;;;;;;;198.10;54.75;;;-6.70;99.90;-5.40;98148.00;;;;5080095;28;20219;-71
2024/01/21 02:49:38;;;;;;;203.15;58.78;;;-6.60;99.90;-5.90;98131.00;;;;5087271;28;20234;-71
2024/01/21 02:52:27;;;;;;;200.13;63.70;;;-6.70;99.90;-6.30;98149.00;;;;5087938;28;20586;-71
2024/01/21 02:55:16;;;;;;;136.55;45.72;;;-6.80;99.90;-5.90;98141.00;;;;5087888;28;20207;-71
2024/01/21 02:58:07;;;;;;;136.15;48.30;;;-7.00;99.90;-5.40;98144.00;;;;5063755;28;20293;-71
2024/01/21 03:00:56;;;;;;;131.07;47.88;;;-6.90;99.90;-5.20;98141.00;;;;5086684;28;20195;-71
2024/01/21 03:03:45;;;;;;;194.30;89.60;;;-6.80;99.90;-5.30;98150.00;;;;5077091;28;20927;-71
2024/01/21 03:06:34;;;;;;;134.63;48.67;;;-6.80;99.90;-6.00;98139.00;;;;5084154;28;20203;-71
2024/01/21 03:09:23;;;;;;;144.40;50.10;;;-6.90;99.90;-6.80;98130.00;;;;5085532;28;20602;-70
2024/01/21 03:12:11;;;;;;;155.98;55.58;;;-7.00;99.90;-6.00;98136.00;;;;5087426;28;20207;-71
2024/01/21 03:15:02;;;;;;;159.70;56.15;;;-7.10;99.90;-6.30;98140.00;;;;5087042;28;20260;-70
2024/01/21 03:17:51;;;;;;;154.43;51.70;;;-6.90;99.90;-5.60;98147.00;;;;5084445;28;20195;-71
2024/01/21 03:20:39;;;;;;;158.88;51.53;;;-7.00;99.90;-5.40;98148.00;;;;5085397;28;20676;-71
2024/01/21 03:23:28;;;;;;;168.73;58.08;;;-7.00;99.90;-5.30;98141.00;;;;5084287;28;20203;-71
2024/01/21 03:26:17;;;;;;;130.23;47.65;;;-6.90;99.90;-5.70;98140.00;;;;5079135;28;20582;-71
2024/01/21 03:29:06;;;;;;;173.85;55.13;;;-6.90;99.90;-5.90;98131.00;;;;5086869;28;20223;-70
2024/01/21 03:31:56;;;;;;;173.63;57.38;;;-6.90;99.90;-5.90;98151.00;;;;5084660;28;20195;-69
2024/01/21 03:34:45;;;;;;;140.85;53.22;;;-6.90;99.90;-5.80;98149.00;;;;5086955;28;20207;-71
2024/01/21 03:37:34;;;;;;;124.78;48.00;;;-7.00;99.90;-5.60;98146.00;;;;5086157;28;20223;-69
2024/01/21 03:40:23;;;;;;;157.32;53.70;;;-7.00;99.90;-6.10;98143.00;;;;5084183;28;20595;-70
2024/01/21 03:43:12;;;;;;;156.60;48.65;;;-7.00;99.90;-6.20;98141.00;;;;5086506;28;20229;-70
2024/01/21 03:46:02;;;;;;;154.82;48.45;;;-7.00;99.90;-6.30;98149.00;;;;5084008;28;20225;-69
2024/01/21 03:48:52;;;;;;;260.13;119.22;;;-7.00;99.90;-5.50;98154.00;;;;5079649;28;20219;-71
2024/01/21 03:51:41;;;;;;;183.32;58.63;;;-7.00;99.90;-5.60;98161.00;;;;5086429;28;20211;-70
2024/01/21 03:54:30;;;;;;;179.40;64.43;;;-6.90;99.90;-5.60;98156.00;;;;5085960;28;20203;-70
2024/01/21 03:57:19;;;;;;;168.25;55.90;;;-6.90;99.90;-5.60;98162.00;;;;5088173;28;20241;-71
2024/01/21 04:00:11;;;;;;;175.88;63.10;;;-6.80;99.90;-5.00;98179.00;;;;5087461;28;20215;-71
2024/01/21 04:03:00;;;;;;;163.43;60.13;;;-6.70;99.90;-4.60;98177.00;;;;5084450;28;20206;-71
2024/01/21 04:05:50;;;;;;;176.40;67.07;;;-6.50;99.90;-4.80;98161.00;;;;5087031;28;20697;-71
2024/01/21 04:08:39;;;;;;;182.43;67.47;;;-6.40;99.90;-5.20;98156.00;;;;5079389;28;20246;-71
2024/01/21 04:11:28;;;;;;;186.00;74.03;;;-6.50;99.90;-5.30;98156.00;;;;5085154;28;20707;-71
2024/01/21 04:14:17;;;;;;;177.73;60.53;;;-6.50;99.90;-5.80;98149.00;;;;5082885;28;20203;-70
2024/01/21 04:17:06;;;;;;;162.75;59.38;;;-6.60;99.90;-6.10;98152.00;;;;5085820;28;20196;-70
2024/01/21 04:19:55;;;;;;;131.45;51.78;;;-6.80;99.90;-5.90;98160.00;;;;5086797;28;20215;-71
2024/01/21 04:22:45;;;;;;;182.93;67.03;;;-6.80;99.90;-5.60;98159.00;;;;5090076;28;20203;-71
2024/01/21 04:25:34;;;;;;;187.18;63.70;;;-6.90;99.90;-5.60;98177.00;;;;5088813;28;20199;-70
2024/01/21 04:28:23;;;;;;;179.90;66.32;;;-6.90;99.90;-6.10;98156.00;;;;5086416;28;20239;-70
2024/01/21 04:31:11;;;;;;;179.73;60.97;;;-7.00;99.90;-6.30;98171.00;;;;5085911;28;20218;-70
2024/01/21 04:34:00;;;;;;;159.65;50.65;;;-7.00;99.90;-5.80;98169.00;;;;5089549;28;20207;-71
2024/01/21 04:36:49;;;;;;;180.60;53.45;;;-7.10;99.90;-5.60;98165.00;;;;5090364;28;20620;-70
2024/01/21 04:39:40;;;;;;;201.27;73.10;;;-7.00;99.90;-5.50;98158.00;;;;5090383;28;20233;-70
2024/01/21 04:42:29;;;;;;;202.77;80.32;;;-7.00;99.90;-5.10;98166.00;;;;5085859;28;20209;-71
2024/01/21 04:45:18;;;;;;;166.52;70.05;;;-6.80;99.90;-5.30;98164.00;;;;5087032;28;20206;-70
2024/01/21 04:48:07;;;;;;;123.47;46.03;;;-6.70;99.90;-5.20;98166.00;;;;5087133;28;20313;-71
2024/01/21 04:50:56;;;;;;;109.43;44.67;;;-6.70;99.90;-5.90;98162.00;;;;5087294;28;20229;-70
2024/01/21 04:53:45;;;;;;;111.05;44.97;;;-6.80;99.90;-5.50;98172.00;;;;5084279;28;20691;-70
2024/01/21 04:56:36;;;;;;;127.60;51.33;;;-6.80;99.90;-5.30;98165.00;;;;5088883;28;20203;-70
2024/01/21 04:59:25;;;;;;;134.38;51.42;;;-6.70;99.90;-5.50;98168.00;;;;5088268;28;20226;-70
2024/01/21 05:02:14;;;;;;;165.65;63.97;;;-6.70;99.90;-5.60;98167.00;;;;5087643;28;20210;-70
2024/01/21 05:05:02;;;;;;;210.02;74.20;;;-6.80;99.90;-5.00;98175.00;;;;5084477;28;20207;-70
2024/01/21 05:07:51;;;;;;;209.02;85.63;;;-6.70;99.90;-5.00;98190.00;;;;5088600;28;20234;-70
2024/01/21 05:10:40;;;;;;;212.27;77.82;;;-6.70;99.90;-5.30;98179.00;;;;5085308;28;20211;-70
2024/01/21 05:13:30;;;;;;;193.52;68.55;;;-6.60;99.90;-5.80;98171.00;;;;5086858;28;20226;-70
2024/01/21 05:16:21;;;;;;;201.30;62.92;;;-6.70;99.90;-6.20;98173.00;;;;5090845;28;20299;-70
2024/01/21 05:19:10;;;;;;;182.57;59.83;;;-6.90;99.90;-6.60;98155.00;;;;5090152;28;20242;-69
2024/01/21 05:21:59;;;;;;;31.02;20.17;;;-7.00;99.90;-6.30;98163.00;;;;5090130;28;20237;-68
2024/01/21 05:24:50;;;;;;;197.60;60.55;;;-7.10;99.90;-6.20;98174.00;;;;5089928;28;20213;-70
2024/01/21 05:27:39;;;;;;;205.82;66.22;;;-7.10;99.90;-5.90;98178.00;;;;5089199;28;20215;-70
2024/01/21 05:30:29;;;;;;;209.48;73.40;;;-7.10;99.90;-5.70;98172.00;;;;5086984;28;20600;-70
2024/01/21 05:33:18;;;;;;;218.68;74.07;;;-7.10;99.90;-6.20;98163.00;;;;5085578;28;20207;-69
2024/01/21 05:36:09;;;;;;;197.32;57.63;;;-7.10;99.90;-5.90;98174.00;;;;5089684;28;20195;-70
2024/01/21 05:38:58;;;;;;;162.07;51.50;;;-7.10;99.90;-5.70;98154.00;;;;5086252;28;20227;-70
2024/01/21 05:42:02;;;;;;;207.40;78.10;;;-7.10;99.90;-5.50;98152.00;;;;5090186;28;20196;-70
2024/01/21 05:44:51;;;;;;;207.15;62.40;;;-7.00;99.90;-5.70;98156.00;;;;5086256;28;20203;-70
2024/01/21 05:47:41;;;;;;;212.98;61.08;;;-7.00;99.90;-5.70;98158.00;;;;5086392;28;20207;-70
2024/01/21 05:50:30;;;;;;;204.77;56.10;;;-7.00;99.90;-5.60;98161.00;;;;5082067;28;20575;-70
2024/01/21 05:53:19;;;;;;;168.10;53.45;;;-6.90;99.90;-5.70;98154.00;;;;5085762;28;20687;-70
2024/01/21 05:56:08;;;;;;;214.55;73.75;;;-6.90;99.90;-5.60;98160.00;;;;5089066;28;20207;-70
2024/01/21 05:58:56;;;;;;;217.23;64.45;;;-7.00;99.90;-5.50;98162.00;;;;5086827;28;20211;-70
2024/01/21 06:01:48;;;;;;;211.40;57.40;;;-6.90;99.90;-5.80;98163.00;;;;5089474;28;20222;-70
2024/01/21 06:04:40;;;;;;;222.07;65.15;;;-6.90;99.90;-5.70;98168.00;;;;5087824;28;20215;-70
2024/01/21 06:07:29;;;;;;;220.63;67.47;;;-6.90;99.90;-6.10;98157.00;;;;5084674;28;20336;-70
2024/01/21 06:10:17;;;;;;;213.23;61.85;;;-7.00;99.90;-5.80;98155.00;;;;5084612;28;20219;-70
2024/01/21 06:13:07;;;;;;;251.70;89.65;;;-7.10;99.90;-6.20;98163.00;;;;5082797;28;20702;-70
2024/01/21 06:15:56;;;;;;;189.00;58.63;;;-7.20;99.90;-5.50;98179.00;;;;5086776;28;20191;-70
2024/01/21 06:18:45;;;;;;;217.07;56.63;;;-7.20;99.90;-5.50;98175.00;;;;5063869;28;20226;-70
2024/01/21 06:21:35;;;;;;;229.02;62.85;;;-7.10;99.90;-5.50;98172.00;;;;5086385;28;20199;-70
2024/01/21 06:24:24;;;;;;;218.27;57.05;;;-7.10;99.90;-5.40;98167.00;;;;5085569;28;20203;-70
2024/01/21 06:27:13;;;;;;;204.88;54.78;;;-5.70;99.90;-5.70;98178.00;;;;5080940;28;20203;-70
2024/01/21 06:30:13;;;;;;;287.23;121.00;;;-7.00;99.90;-5.80;98162.00;;;;5080911;28;20234;-70
2024/01/21 06:33:02;;;;;;;195.52;57.00;;;-7.10;99.90;-6.20;98170.00;;;;5049287;28;20252;-69
2024/01/21 06:35:50;;;;;;;161.70;48.55;;;-7.10;99.90;-6.50;98163.00;;;;5084506;28;20205;-70
2024/01/21 06:38:41;;;;;;;199.13;64.60;;;-7.30;99.90;-6.50;98163.00;;;;5086183;28;20230;-70
2024/01/21 06:41:30;;;;;;;249.68;96.45;;;-7.30;99.90;-6.00;98164.00;;;;5066235;28;20212;-70
2024/01/21 06:44:19;;;;;;;246.85;113.03;;;-8.30;99.90;-6.10;98163.00;;;;5041049;28;20195;-69
2024/01/21 06:47:07;;;;;;;174.82;54.90;;;-7.40;99.90;-5.80;98170.00;;;;5051901;28;20203;-70
2024/01/21 06:49:56;;;;;;;199.48;56.13;;;-7.30;99.90;-5.80;98166.00;;;;5060568;28;20235;-70
2024/01/21 06:52:45;;;;;;;163.35;51.95;;;-7.20;99.90;-5.50;98187.00;;;;5082619;28;20581;-69
2024/01/21 06:55:36;;;;;;;288.35;125.70;;;-7.10;99.90;-6.80;98169.00;;;;5071418;28;20206;-68
2024/01/21 06:58:25;;;;;;;207.93;68.97;;;-7.20;99.90;-6.70;98178.00;;;;5040563;28;22015;-69
2024/01/21 07:01:14;;;;;;;289.50;124.30;;;-7.30;99.90;-6.10;98179.00;;;;5043527;28;20198;-68
2024/01/21 07:04:03;;;;;;;269.58;98.00;;;-7.30;99.90;-6.10;98178.00;;;;5044561;28;21293;-69
2024/01/21 07:06:52;;;;;;;305.30;123.20;;;-7.20;99.90;-6.00;98190.00;;;;5043163;28;20207;-70
2024/01/21 07:09:42;;;;;;;292.70;123.47;;;-7.20;99.90;-5.60;98192.00;;;;5043858;28;20239;-70
2024/01/21 07:12:32;;;;;;;280.48;120.18;;;-7.00;99.90;-5.80;98188.00;;;;5043695;28;20225;-70
2024/01/21 07:15:22;;;;;;;283.00;120.15;;;-7.00;99.90;-6.10;98192.00;;;;5042783;28;20268;-70
2024/01/21 07:18:11;;;;;;;270.88;112.65;;;-7.00;99.90;-5.80;98186.00;;;;5042718;28;20211;-70
2024/01/21 07:21:00;;;;;;;283.02;121.65;;;-8.00;99.90;-5.40;98190.00;;;;5044156;28;20203;-70
2024/01/21 07:23:49;;;;;;;280.45;115.13;;;-6.80;99.90;-5.80;98187.00;;;;5039651;28;20206;-70
2024/01/21 07:26:38;;;;;;;289.42;128.10;;;-6.70;99.90;-5.90;98194.00;;;;5041947;28;20231;-69
2024/01/21 07:29:28;;;;;;;249.60;87.45;;;-6.70;99.90;-5.60;98200.00;;;;5041005;28;20580;-70
2024/01/21 07:32:17;;;;;;;311.67;129.43;;;-6.70;99.90;-6.10;98188.00;;;;5043481;28;20207;-69
2024/01/21 07:35:07;;;;;;;260.08;97.18;;;-6.70;99.90;-6.70;98182.00;;;;5041527;28;20230;-67
2024/01/21 07:37:57;;;;;;;312.30;135.60;;;-6.90;99.90;-6.10;98187.00;;;;5043207;28;20211;-70
2024/01/21 07:40:47;;;;;;;215.93;88.93;;;-6.90;99.90;-5.90;98181.00;;;;5040662;28;20207;-69
2024/01/21 07:43:36;;;;;;;271.27;122.78;;;-6.80;99.90;-5.60;98185.00;;;;5041784;28;20215;-70
2024/01/21 07:46:27;;;;;;;324.13;136.85;;;-6.70;99.90;-5.90;98185.00;;;;5042994;28;20215;-69
2024/01/21 07:49:16;;;;;;;334.13;139.27;;;-6.60;99.90;-4.90;98198.00;;;;5043315;28;20227;-69
2024/01/21 07:52:06;;;;;;;336.70;134.88;;;-6.50;99.90;-4.10;98197.00;;;;5056206;28;20204;-69
2024/01/21 07:54:55;;;;;;;330.88;138.55;;;-6.30;99.90;-3.90;98188.00;;;;5041819;28;20198;-70
2024/01/21 07:57:44;;;;;;;261.48;79.55;;;-6.00;99.90;-3.70;98194.00;;;;5067387;28;20210;-70
2024/01/21 08:00:33;;;;;;;284.25;92.45;;;-5.80;99.90;-3.30;98196.00;;;;5038778;28;20214;-68
2024/01/21 08:03:23;;;;;;;335.08;132.63;;;-5.50;99.90;-3.00;98206.00;;;;5044402;28;20789;-69
2024/01/21 08:06:12;;;;;;;274.38;87.50;;;-5.20;99.90;-2.80;98197.00;;;;5039819;28;22185;-69
2024/01/21 08:09:01;;;;;;;351.73;133.13;;;-5.00;99.90;-2.70;98194.00;;;;5044555;28;20215;-70
2024/01/21 08:11:50;;;;;;;318.27;106.90;;;-4.70;99.90;-2.80;98190.00;;;;5042791;28;22867;-68
2024/01/21 08:14:39;;;;;;;365.58;140.57;;;-4.50;99.90;-2.80;98192.00;;;;5055341;28;20218;-69
2024/01/21 08:17:28;;;;;;;357.50;140.55;;;-4.30;99.90;-2.60;98201.00;;;;5033722;28;20204;-70
2024/01/21 08:20:19;;;;;;;384.42;161.80;;;-4.30;99.90;-2.00;98207.00;;;;5044179;28;20631;-70
2024/01/21 08:23:08;;;;;;;340.88;133.40;;;-4.00;99.90;-2.60;98208.00;;;;5036557;28;20206;-69
2024/01/21 08:25:57;;;;;;;336.70;125.88;;;-4.10;99.90;-2.50;98206.00;;;;5062461;28;20595;-69
2024/01/21 08:28:46;;;;;;;286.20;91.17;;;-3.90;99.90;-3.20;98204.00;;;;5073061;28;20607;-69
2024/01/21 08:31:41;;;;;;;405.30;182.30;;;-2.40;99.90;-2.80;98193.00;;;;5049524;28;20449;-69
2024/01/21 08:34:30;;;;;;;395.88;174.95;;;-3.90;99.90;-2.70;98193.00;;;;5042789;28;20676;-71
2024/01/21 08:37:20;;;;;;;338.88;136.07;;;-4.00;99.90;-2.90;98199.00;;;;5039624;28;20207;-70
2024/01/21 08:40:11;;;;;;;259.20;97.37;;;-3.80;99.80;-2.40;98208.00;;;;5042587;28;20626;-71
2024/01/21 08:43:00;;;;;;;297.98;82.15;;;-2.50;99.90;-2.40;98211.00;;;;5084188;28;20422;-71
2024/01/21 08:45:49;;;;;;;302.52;87.65;;;-3.80;99.50;-2.60;98209.00;;;;5081498;28;20210;-70
2024/01/21 08:48:38;;;;;;;308.58;94.38;;;-3.80;99.10;-2.80;98193.00;;;;5081545;28;20215;-70
2024/01/21 08:51:27;;;;;;;320.13;105.75;;;-3.70;99.60;-2.20;98206.00;;;;5073911;28;20322;-70
2024/01/21 08:54:17;;;;;;;309.92;87.95;;;-3.70;99.50;-1.80;98197.00;;;;5075123;28;20207;-70
2024/01/21 08:57:30;;;;;;;273.30;90.30;;;-3.50;99.40;-2.00;98207.00;;;;5079782;28;20199;-71
2024/01/21 09:00:20;;;;;;;304.73;132.77;;;-3.10;98.90;-1.80;98209.00;;;;5079048;28;20429;-70
2024/01/21 09:03:10;;;;;;;306.47;105.23;;;-3.30;99.00;-1.80;98201.00;;;;5036621;28;20457;-70
2024/01/21 09:05:59;;;;;;;202.50;106.50;;;-3.20;98.60;-1.40;98217.00;;;;5044412;28;20482;-71
2024/01/21 09:08:52;;;;;;;318.93;121.17;;;-3.10;98.30;-1.40;98210.00;;;;5044512;28;20468;-71
2024/01/21 09:11:42;;;;;;;183.77;71.60;;;-2.90;98.40;-1.10;98204.00;;;;5071226;28;20465;-71
2024/01/21 09:14:31;;;;;;;147.70;62.23;;;-2.60;97.80;-1.60;98200.00;;;;5086663;28;20434;-71
2024/01/21 09:17:20;;;;;;;232.03;104.00;;;-2.70;97.10;-0.90;98208.00;;;;5087488;28;20426;-69
2024/01/21 09:20:10;;;;;;;186.97;93.50;;;-2.50;97.00;-0.40;98211.00;;;;5060473;28;20449;-71
2024/01/21 09:22:59;;;;;;;164.00;58.10;;;-2.40;96.60;0.10;98206.00;;;;5084665;28;20433;-71
2024/01/21 09:25:48;;;;;;;303.83;93.77;;;-2.20;96.80;-0.40;98200.00;;;;5084420;28;20448;-71
2024/01/21 09:28:38;;;;;;;199.83;76.30;;;-1.90;95.60;0.20;98197.00;;;;5085038;28;20459;-71
2024/01/21 09:31:27;;;;;;;158.77;59.13;;;-1.80;95.50;0.60;98215.00;;;;5088502;28;20468;-72
2024/01/21 09:34:16;;;;;;;158.77;64.57;;;-1.60;95.30;0.70;98209.00;;;;5081560;28;20418;-71
2024/01/21 09:37:05;;;;;;;309.33;94.33;;;-1.40;94.90;0.40;98211.00;;;;5066824;28;20471;-72
2024/01/21 09:39:54;;;;;;;318.97;139.00;;;-1.30;93.50;0.50;98209.00;;;;5044477;28;20466;-72
2024/01/21 09:42:43;;;;;;;259.07;125.33;;;-1.20;93.70;1.20;98202.00;;;;5041849;28;20433;-72
2024/01/21 09:45:41;;;;;;;354.40;142.77;;;-1.10;93.60;0.90;98205.00;;;;5044715;28;20992;-71
2024/01/21 09:48:31;;;;;;;345.27;139.73;;;-0.90;93.10;1.50;98201.00;;;;5044843;28;20458;-71
2024/01/21 09:51:20;;;;;;;340.40;99.73;;;-0.70;93.10;1.90;98198.00;;;;5041528;28;21101;-70
2024/01/21 09:54:10;;;;;;;388.47;142.67;;;-0.50;92.60;1.00;98190.00;;;;5044125;28;21073;-71
2024/01/21 09:56:59;;;;;;;358.27;120.80;;;-0.40;91.20;1.40;98191.00;;;;5041720;28;20430;-71
2024/01/21 09:59:48;;;;;;;250.80;123.97;;;-0.30;91.30;1.70;98197.00;;;;5043980;28;20977;-71
2024/01/21 10:02:40;;;;;;;364.80;146.33;;;-0.10;90.80;1.90;98193.00;;;;5043945;28;20441;-71
2024/01/21 10:05:29;;;;;;;375.03;132.20;;;0.10;90.40;2.40;98194.00;;;;5039045;28;20441;-71
2024/01/21 10:08:19;;;;;;;382.57;153.20;;;0.20;90.20;1.80;98183.00;;;;5044121;28;22004;-71
2024/01/21 10:11:08;;;;;;;334.70;127.23;;;0.30;87.60;2.10;98187.00;;;;5041431;28;20461;-71
2024/01/21 10:13:58;;;;;;;383.87;139.17;;;0.60;87.50;2.20;98188.00;;;;5044365;28;20450;-70
2024/01/21 10:16:49;;;;;;;317.33;130.67;;;0.50;87.90;2.70;98181.00;;;;5041109;28;20464;-71
2024/01/21 10:19:40;;;;;;;409.30;154.53;;;0.70;87.70;3.60;98177.00;;;;5043592;28;20501;-72
2024/01/21 10:22:28;;;;;;;409.67;156.07;;;0.90;88.60;3.40;98168.00;;;;5041664;28;20529;-69
2024/01/21 10:25:18;;;;;;;266.40;128.93;;;1.10;87.20;3.00;98167.00;;;;5043856;28;20445;-71
2024/01/21 10:28:09;;;;;;;286.00;120.20;;;1.20;84.80;3.90;98173.00;;;;5043787;28;20455;-73
2024/01/21 10:30:58;;;;;;;212.80;127.20;;;1.40;84.80;3.90;98168.00;;;;5045510;28;20472;-70
2024/01/21 10:33:47;;;;;;;165.57;97.40;;;1.60;83.20;3.90;98166.00;;;;5039629;28;20486;-72
2024/01/21 10:36:38;;;;;;;173.03;95.73;;;1.70;83.30;4.50;98165.00;;;;5048318;28;20422;-70
2024/01/21 10:39:29;;;;;;;88.27;53.53;;;2.10;82.40;5.20;98166.00;;;;5084454;28;20465;-72
2024/01/21 10:42:18;;;;;;;109.47;66.47;;;3.20;78.50;5.50;98178.00;;;;5079193;28;20950;-72
2024/01/21 10:45:08;;;;;;;105.03;63.63;;;4.40;73.70;5.60;98168.00;;;;5083910;28;20448;-72
2024/01/21 10:47:59;;;;;;;103.53;62.40;;;6.00;82.50;6.30;98170.00;;;;5085460;28;20668;-72
2024/01/21 10:50:51;;;;;;;112.90;68.20;;;6.00;65.00;7.70;98189.00;;;;5086469;28;20235;-72
2024/01/21 10:53:42;;;;;;;133.07;78.50;;;6.70;65.30;7.80;98187.00;;;;5080958;28;20573;-73
2024/01/21 10:56:33;;;;;;;135.70;77.57;;;7.70;59.80;7.70;98173.00;;;;5083876;28;20214;-72
2024/01/21 10:59:22;;;;;;;151.17;87.63;;;8.40;57.80;7.90;98168.00;;;;5081949;28;20215;-72
2024/01/21 11:02:12;;;;;;;146.97;89.83;;;8.60;56.10;8.20;98175.00;;;;5085078;28;20203;-72
2024/01/21 11:05:01;;;;;;;153.50;90.87;;;8.70;55.80;8.60;98181.00;;;;5081467;28;20199;-73
2024/01/21 11:08:02;;;;;;;138.10;83.97;;;8.90;66.40;7.60;98156.00;;;;5080009;28;20196;-72
2024/01/21 11:11:02;;;;;;;144.33;84.60;;;8.90;53.40;8.10;98159.00;;;;5079502;28;20210;-72
2024/01/21 11:13:52;;;;;;;138.10;83.23;;;9.00;53.20;8.90;98159.00;;;;5083166;28;20582;-72
2024/01/21 11:16:42;;;;;;;167.07;95.67;;;9.10;53.40;9.00;98158.00;;;;5083812;28;20222;-72
2024/01/21 11:19:38;;;;;;;157.97;92.93;;;9.30;52.30;8.70;98161.00;;;;5083850;28;20227;-73
2024/01/21 11:22:27;;;;;;;217.23;130.10;;;9.30;52.40;9.50;98157.00;;;;5051695;28;20555;-72
2024/01/21 11:25:34;;;;;;;268.37;162.20;;;9.60;51.50;9.40;98162.00;;;;5041569;28;20214;-73
2024/01/21 11:28:31;;;;;;;297.77;169.23;;;9.60;50.80;9.60;98151.00;;;;5041341;28;20230;-72
2024/01/21 11:31:22;;;;;;;261.40;158.43;;;7.70;62.70;9.70;98163.00;;;;5041400;28;20719;-69
2024/01/21 11:34:12;;;;;;;146.10;92.07;;;9.70;51.90;10.30;98153.00;;;;5052168;28;20576;-70
2024/01/21 11:37:01;;;;;;;169.30;100.27;;;9.90;51.70;10.20;98148.00;;;;5083440;28;20205;-72
2024/01/21 11:39:50;;;;;;;153.73;97.40;;;9.90;50.70;9.60;98152.00;;;;5081770;28;20635;-73
2024/01/21 11:42:39;;;;;;;184.83;115.00;;;10.00;49.50;10.40;98152.00;;;;5079204;28;20687;-72
2024/01/21 11:45:29;;;;;;;227.83;154.73;;;10.10;49.80;9.10;98128.00;;;;5074848;28;20244;-72
2024/01/21 11:48:18;;;;;;;171.53;123.63;;;9.70;49.00;10.80;98144.00;;;;5079077;28;20313;-72
2024/01/21 11:51:07;;;;;;;130.83;98.40;;;9.80;50.50;9.70;98129.00;;;;5085621;28;20245;-72
2024/01/21 11:53:57;;;;;;;125.57;93.07;;;9.90;48.90;10.80;98140.00;;;;5084213;28;20214;-72
2024/01/21 11:56:46;;;;;;;147.70;106.03;;;10.10;49.60;10.60;98127.00;;;;5084923;28;20718;-70
2024/01/21 11:59:35;;;;;;;148.80;107.43;;;10.20;49.30;10.50;98130.00;;;;5057797;28;20708;-73
2024/01/21 12:02:27;;;;;;;146.00;104.47;;;10.00;49.40;10.30;98124.00;;;;5081485;28;20248;-72
2024/01/21 12:05:19;;;;;;;138.10;98.27;;;9.90;48.60;10.60;98114.00;;;;5080273;28;20210;-73
2024/01/21 12:08:09;;;;;;;212.67;153.40;;;9.90;49.20;11.10;98122.00;;;;5044787;28;20598;-73
2024/01/21 12:10:59;;;;;;;250.00;173.63;;;9.90;49.60;11.10;98118.00;;;;5037056;28;20207;-72